Time;durP1;ratioP1;P1;durP2;ratioP2;P2;SDS_P1;SDS_P2;PMS_P1;PMS_P2;Temp;Humidity;BMP_temperature;BMP_pressure;BME280_temperature;BME280_humidity;BME280_pressure;Samples;Min_cycle;Max_cycle;Signal;HPM_P1;HPM_P2
2022/05/02 00:01:37;;;;;;;2.10;1.00;;;10.30;99.90;;;;;;4972539;28;20471;-66
2022/05/02 00:04:03;;;;;;;0.22;0.22;;;10.30;99.90;;;;;;4972596;28;20106;-65
2022/05/02 00:06:29;;;;;;;0.35;0.35;;;10.20;99.90;;;;;;4973812;28;20121;-65
2022/05/02 00:08:55;;;;;;;1.65;1.33;;;10.20;99.90;;;;;;4973362;28;20141;-66
2022/05/02 00:11:20;;;;;;;2.83;1.20;;;10.20;99.90;;;;;;4972776;28;20039;-66
2022/05/02 00:13:46;;;;;;;1.83;1.23;;;10.10;99.90;;;;;;4973765;28;20030;-66
2022/05/02 00:16:13;;;;;;;0.22;0.22;;;10.10;99.90;;;;;;4972035;28;20118;-66
2022/05/02 00:18:39;;;;;;;1.65;1.25;;;10.00;99.90;;;;;;4971996;28;20035;-66
2022/05/02 00:21:04;;;;;;;0.88;0.77;;;10.00;99.90;;;;;;4955218;28;20022;-65
2022/05/02 00:23:30;;;;;;;1.40;1.20;;;9.90;99.90;;;;;;4973434;28;20268;-66
2022/05/02 00:25:56;;;;;;;0.28;0.28;;;9.80;99.90;;;;;;4956009;28;20070;-66
2022/05/02 00:28:21;;;;;;;0.55;0.55;;;9.80;99.90;;;;;;4971866;28;20049;-66
2022/05/02 00:30:47;;;;;;;0.40;0.40;;;9.50;99.90;;;;;;4972215;28;20114;-66
2022/05/02 00:33:18;;;;;;;0.70;0.57;;;9.30;99.90;;;;;;4973546;28;20050;-66
2022/05/02 00:35:44;;;;;;;0.90;0.75;;;9.40;99.90;;;;;;4973223;28;22053;-66
2022/05/02 00:38:10;;;;;;;0.25;0.25;;;9.40;99.90;;;;;;4971608;28;20126;-66
2022/05/02 00:40:35;;;;;;;0.10;0.10;;;9.50;99.90;;;;;;4973116;28;20067;-66
2022/05/02 00:43:01;;;;;;;0.75;0.75;;;9.50;99.90;;;;;;4973026;28;20062;-66
2022/05/02 00:45:27;;;;;;;0.10;0.10;;;9.50;99.90;;;;;;4955459;28;20114;-66
2022/05/02 00:47:55;;;;;;;0.55;0.55;;;9.50;99.90;;;;;;4972943;28;20503;-65
2022/05/02 00:50:36;;;;;;;0.08;0.08;;;9.50;99.90;;;;;;4971479;28;20053;-67
2022/05/02 00:53:09;;;;;;;1.38;1.27;;;9.50;99.90;;;;;;4973177;28;20026;-67
2022/05/02 00:55:37;;;;;;;0.15;0.15;;;9.50;99.90;;;;;;4973181;28;20463;-66
2022/05/02 00:58:04;;;;;;;1.45;1.27;;;9.50;99.90;;;;;;4972593;28;20442;-67
2022/05/02 01:00:33;;;;;;;0.38;0.38;;;9.50;99.90;;;;;;4971169;28;20082;-67
2022/05/02 01:03:01;;;;;;;0.43;0.40;;;9.50;99.90;;;;;;4972731;28;20023;-68
2022/05/02 01:05:27;;;;;;;1.30;1.05;;;9.50;99.90;;;;;;4980621;28;20080;-67
2022/05/02 01:07:53;;;;;;;2.47;1.02;;;9.60;99.90;;;;;;4994024;28;20106;-65
2022/05/02 01:10:19;;;;;;;4.28;0.90;;;9.60;99.90;;;;;;4991178;28;20498;-66
2022/05/02 01:12:48;;;;;;;0.10;0.10;;;9.50;99.90;;;;;;5011652;28;20458;-66
2022/05/02 01:15:16;;;;;;;0.43;0.43;;;9.50;99.90;;;;;;5005364;28;20101;-66
2022/05/02 01:17:43;;;;;;;0.00;0.00;;;9.40;99.90;;;;;;4991800;28;20034;-66
2022/05/02 01:20:14;;;;;;;1.33;1.27;;;9.30;99.90;;;;;;4991675;28;20030;-65
2022/05/02 01:22:42;;;;;;;0.15;0.15;;;9.30;99.90;;;;;;4990460;28;20041;-66
2022/05/02 01:25:08;;;;;;;2.67;0.73;;;9.30;99.90;;;;;;5007448;28;20049;-66
2022/05/02 01:27:34;;;;;;;0.52;0.52;;;9.20;99.90;;;;;;5009888;28;20064;-66
2022/05/02 01:30:00;;;;;;;0.40;0.40;;;9.30;99.90;;;;;;5010019;28;20030;-66
2022/05/02 01:32:25;;;;;;;3.50;1.20;;;9.30;99.90;;;;;;5009599;28;20041;-65
2022/05/02 01:34:51;;;;;;;0.68;0.68;;;9.20;99.90;;;;;;5011424;28;20042;-65
2022/05/02 01:37:17;;;;;;;0.00;0.00;;;9.20;99.90;;;;;;5011080;28;20116;-66
2022/05/02 01:39:43;;;;;;;0.55;0.55;;;9.10;99.90;;;;;;5010856;28;20441;-65
2022/05/02 01:42:11;;;;;;;0.17;0.17;;;9.10;99.90;;;;;;4994195;28;20049;-66
2022/05/02 01:44:39;;;;;;;1.10;1.00;;;9.10;99.90;;;;;;4991300;28;20040;-66
2022/05/02 01:47:06;;;;;;;0.38;0.38;;;9.20;99.90;;;;;;4990106;28;20030;-66
2022/05/02 01:49:32;;;;;;;8.70;1.38;;;9.20;99.90;;;;;;4989770;28;20402;-66
2022/05/02 01:51:58;;;;;;;0.10;0.10;;;9.20;99.90;;;;;;4991136;28;20034;-66
2022/05/02 01:54:25;;;;;;;0.20;0.20;;;9.10;99.90;;;;;;4990107;28;20482;-66
2022/05/02 01:56:52;;;;;;;1.02;0.55;;;9.00;99.90;;;;;;4989677;28;20117;-66
2022/05/02 01:59:17;;;;;;;0.50;0.50;;;9.10;99.90;;;;;;4989738;28;20478;-66
2022/05/02 02:01:43;;;;;;;7.38;1.17;;;9.10;99.90;;;;;;4973969;28;20041;-66
2022/05/02 02:06:54;;;;;;;0.47;0.47;;;9.00;99.90;;;;;;4990945;28;20034;-66
2022/05/02 02:09:20;;;;;;;0.40;0.40;;;8.90;99.90;;;;;;4990832;28;20034;-66
2022/05/02 02:11:46;;;;;;;3.42;2.00;;;8.90;99.90;;;;;;4989831;28;20038;-66
2022/05/02 02:14:12;;;;;;;0.05;0.05;;;8.90;99.90;;;;;;4991039;28;20088;-66
2022/05/02 02:16:37;;;;;;;3.33;1.95;;;8.80;99.90;;;;;;5010105;28;20481;-66
2022/05/02 02:19:04;;;;;;;0.00;0.00;;;8.80;99.90;;;;;;5010398;28;20593;-66
2022/05/02 02:21:31;;;;;;;0.25;0.25;;;8.80;99.90;;;;;;5010620;28;20030;-66
2022/05/02 02:23:58;;;;;;;0.38;0.38;;;8.80;99.90;;;;;;5009128;28;20049;-66
2022/05/02 02:26:23;;;;;;;0.20;0.20;;;8.80;99.90;;;;;;5009432;28;20478;-66
2022/05/02 02:28:49;;;;;;;0.13;0.13;;;8.70;99.90;;;;;;5008814;28;20064;-65
2022/05/02 02:31:15;;;;;;;0.38;0.38;;;8.70;99.90;;;;;;5010704;28;20038;-66
2022/05/02 02:33:41;;;;;;;0.32;0.32;;;8.70;99.90;;;;;;5010413;28;20042;-66
2022/05/02 02:36:07;;;;;;;0.00;0.00;;;8.70;99.90;;;;;;5010261;28;20042;-66
2022/05/02 02:38:32;;;;;;;0.38;0.35;;;8.50;99.90;;;;;;5009929;28;20468;-66
2022/05/02 02:40:58;;;;;;;1.23;1.13;;;8.40;99.90;;;;;;5009410;28;20036;-66
2022/05/02 02:43:24;;;;;;;0.10;0.10;;;8.40;99.90;;;;;;5010316;28;20386;-66
2022/05/02 02:45:49;;;;;;;0.08;0.08;;;8.50;99.90;;;;;;5013375;28;20034;-66
2022/05/02 02:48:15;;;;;;;0.43;0.43;;;8.50;99.90;;;;;;5013966;28;20033;-66
2022/05/02 02:50:41;;;;;;;1.02;1.02;;;8.50;99.90;;;;;;5013939;28;20041;-66
2022/05/02 02:53:07;;;;;;;0.15;0.15;;;8.50;99.90;;;;;;5014246;28;20064;-66
2022/05/02 02:55:34;;;;;;;1.75;1.63;;;8.50;99.90;;;;;;4996435;28;20041;-66
2022/05/02 02:58:00;;;;;;;1.23;1.10;;;8.40;99.90;;;;;;5012925;28;20079;-66
2022/05/02 03:00:26;;;;;;;1.00;0.43;;;8.30;99.90;;;;;;5012042;28;20033;-65
2022/05/02 03:02:53;;;;;;;0.00;0.00;;;8.30;99.90;;;;;;5012663;28;20520;-66
2022/05/02 03:08:04;;;;;;;0.32;0.32;;;8.30;99.90;;;;;;5012898;28;20462;-66
2022/05/02 03:10:30;;;;;;;0.00;0.00;;;8.20;99.90;;;;;;4995952;28;20052;-66
2022/05/02 03:12:56;;;;;;;0.20;0.20;;;8.00;99.90;;;;;;5013719;28;20033;-66
2022/05/02 03:15:22;;;;;;;0.35;0.35;;;8.10;99.90;;;;;;5004462;28;20030;-65
2022/05/02 03:17:48;;;;;;;0.45;0.45;;;8.00;99.90;;;;;;4992439;28;20049;-66
2022/05/02 03:20:14;;;;;;;1.05;0.90;;;8.00;99.90;;;;;;4976223;28;20028;-65
2022/05/02 03:22:40;;;;;;;0.05;0.05;;;8.00;99.90;;;;;;4992738;28;20030;-66
2022/05/02 03:25:06;;;;;;;0.13;0.13;;;8.00;99.90;;;;;;4992568;28;20122;-66
2022/05/02 03:27:32;;;;;;;0.85;0.85;;;8.10;99.90;;;;;;4992773;28;20428;-66
2022/05/02 03:29:58;;;;;;;0.17;0.17;;;8.10;99.90;;;;;;4992418;28;20117;-66
2022/05/02 03:32:24;;;;;;;0.10;0.10;;;8.10;99.90;;;;;;4993708;28;20037;-66
2022/05/02 03:34:49;;;;;;;0.43;0.43;;;8.10;99.90;;;;;;4993945;28;20113;-66
2022/05/02 03:37:15;;;;;;;0.10;0.10;;;8.10;99.90;;;;;;4993620;28;20026;-66
2022/05/02 03:39:41;;;;;;;0.20;0.20;;;8.10;99.90;;;;;;4993452;28;20023;-66
2022/05/02 03:42:08;;;;;;;25.33;1.70;;;8.20;99.90;;;;;;4993575;28;20080;-66
2022/05/02 03:44:33;;;;;;;1.20;1.15;;;8.10;99.90;;;;;;4975962;28;20031;-65
2022/05/02 03:46:59;;;;;;;4.18;0.98;;;8.20;99.90;;;;;;4992180;28;20034;-65
2022/05/02 03:49:25;;;;;;;0.22;0.22;;;8.20;99.90;;;;;;4976034;28;20126;-66
2022/05/02 03:51:51;;;;;;;2.00;0.45;;;8.30;99.90;;;;;;4976451;28;20035;-66
2022/05/02 03:54:16;;;;;;;0.65;0.65;;;8.30;99.90;;;;;;4998714;28;20568;-65
2022/05/02 03:56:42;;;;;;;0.35;0.35;;;8.20;99.90;;;;;;4968430;28;20441;-66
2022/05/02 03:59:08;;;;;;;0.75;0.75;;;8.20;99.90;;;;;;4973439;28;20035;-63
2022/05/02 04:01:36;;;;;;;0.30;0.30;;;8.20;99.90;;;;;;4989624;28;20477;-66
2022/05/02 04:04:03;;;;;;;1.35;0.90;;;8.20;99.90;;;;;;5000438;28;20165;-65
2022/05/02 04:06:29;;;;;;;0.40;0.40;;;8.20;99.90;;;;;;4992597;28;20026;-65
2022/05/02 04:08:55;;;;;;;0.22;0.20;;;8.20;99.90;;;;;;4999075;28;20026;-65
2022/05/02 04:11:21;;;;;;;0.90;0.90;;;8.30;99.90;;;;;;4998339;28;20023;-66
2022/05/02 04:13:46;;;;;;;0.20;0.20;;;8.30;99.90;;;;;;5000904;28;20034;-65
2022/05/02 04:16:13;;;;;;;0.68;0.68;;;8.30;99.90;;;;;;5001217;28;20076;-65
2022/05/02 04:18:40;;;;;;;0.10;0.10;;;8.40;99.90;;;;;;4954090;28;20034;-65
2022/05/02 04:21:06;;;;;;;2.10;1.75;;;8.40;99.90;;;;;;4994581;28;20217;-65
2022/05/02 04:23:32;;;;;;;0.20;0.20;;;8.40;99.90;;;;;;5010958;28;20466;-65
2022/05/02 04:25:58;;;;;;;1.35;1.30;;;8.40;99.90;;;;;;4977481;28;20069;-66
2022/05/02 04:28:23;;;;;;;0.50;0.50;;;8.40;99.90;;;;;;5003004;28;20038;-65
2022/05/02 04:30:49;;;;;;;0.70;0.70;;;8.40;99.90;;;;;;5007723;28;20033;-65
2022/05/02 04:33:15;;;;;;;1.05;1.00;;;8.40;99.90;;;;;;4988417;28;20081;-65
2022/05/02 04:35:41;;;;;;;0.60;0.35;;;8.40;99.90;;;;;;5001159;28;20046;-66
2022/05/02 04:38:07;;;;;;;2.47;1.98;;;8.40;99.90;;;;;;4993456;28;20121;-65
2022/05/02 04:40:32;;;;;;;0.63;0.63;;;8.40;99.90;;;;;;4999181;28;20037;-66
2022/05/02 04:42:58;;;;;;;0.40;0.40;;;8.40;99.90;;;;;;5000370;28;20034;-66
2022/05/02 04:45:24;;;;;;;0.20;0.20;;;8.30;99.90;;;;;;5010561;28;20033;-66
2022/05/02 04:47:50;;;;;;;0.20;0.20;;;8.30;99.90;;;;;;5002015;28;20512;-65
2022/05/02 04:50:15;;;;;;;0.65;0.65;;;8.40;99.90;;;;;;4997301;28;20109;-65
2022/05/02 04:52:41;;;;;;;1.55;1.45;;;8.40;99.90;;;;;;5001716;28;20401;-65
2022/05/02 04:55:08;;;;;;;1.00;0.88;;;8.50;99.90;;;;;;4999688;28;20041;-65
2022/05/02 04:57:33;;;;;;;1.02;0.98;;;8.50;99.90;;;;;;4991390;28;20564;-65
2022/05/02 04:59:59;;;;;;;0.20;0.20;;;8.50;99.90;;;;;;4994070;28;20113;-65
2022/05/02 05:02:25;;;;;;;0.45;0.45;;;8.50;99.90;;;;;;4981868;28;20643;-66
2022/05/02 05:04:51;;;;;;;0.13;0.13;;;8.50;99.90;;;;;;4975556;28;20375;-66
2022/05/02 05:07:17;;;;;;;0.90;0.90;;;8.60;99.90;;;;;;4983353;28;20038;-67
2022/05/02 05:09:43;;;;;;;0.38;0.38;;;8.60;99.90;;;;;;5002524;28;20045;-66
2022/05/02 05:12:58;;;;;;;0.85;0.85;;;8.60;99.90;;;;;;4975214;28;20494;-66
2022/05/02 05:18:47;;;;;;;3.30;0.75;;;8.70;99.90;;;;;;4999549;28;20410;-66
2022/05/02 05:21:37;;;;;;;0.10;0.10;;;8.80;99.90;;;;;;4925848;28;20073;-66
2022/05/02 05:24:45;;;;;;;0.30;0.30;;;8.80;99.90;;;;;;4973867;28;20533;-66
2022/05/02 05:27:44;;;;;;;8.57;3.70;;;8.90;99.90;;;;;;5003160;28;20038;-66
2022/05/02 05:30:10;;;;;;;0.10;0.10;;;8.90;99.90;;;;;;5000310;28;20047;-67
2022/05/02 05:32:51;;;;;;;1.02;0.65;;;8.90;99.90;;;;;;5010853;28;20274;-66
2022/05/02 05:35:29;;;;;;;0.40;0.40;;;8.80;99.90;;;;;;4999107;28;20041;-66
2022/05/02 05:38:02;;;;;;;0.20;0.20;;;8.80;99.90;;;;;;4981141;28;20034;-66
2022/05/02 05:40:39;;;;;;;0.45;0.45;;;8.90;99.90;;;;;;5001711;28;20365;-66
2022/05/02 05:43:38;;;;;;;0.93;0.93;;;8.90;99.90;;;;;;5011051;28;20096;-66
2022/05/02 05:46:41;;;;;;;1.92;1.35;;;8.90;99.90;;;;;;5009471;28;20096;-66
2022/05/02 05:49:36;;;;;;;1.23;1.15;;;9.00;99.90;;;;;;5007472;28;20095;-65
2022/05/02 05:52:45;;;;;;;1.23;1.13;;;9.10;99.90;;;;;;4997191;28;20517;-65
2022/05/02 05:55:19;;;;;;;0.28;0.28;;;9.20;99.90;;;;;;4995353;28;20485;-66
2022/05/02 05:58:15;;;;;;;0.30;0.30;;;9.30;99.90;;;;;;4997085;28;20034;-68
2022/05/02 06:00:45;;;;;;;0.10;0.10;;;9.40;99.90;;;;;;4974363;28;20118;-66
2022/05/02 06:03:25;;;;;;;1.15;1.05;;;9.40;99.90;;;;;;4970314;28;20027;-67
2022/05/02 06:05:52;;;;;;;0.00;0.00;;;9.40;99.90;;;;;;4977964;28;20080;-65
2022/05/02 06:08:22;;;;;;;0.57;0.57;;;9.50;99.90;;;;;;5008188;28;20125;-65
2022/05/02 06:10:51;;;;;;;0.10;0.10;;;9.50;99.90;;;;;;4993880;28;20558;-65
2022/05/02 06:13:18;;;;;;;1.35;0.93;;;9.60;99.90;;;;;;4990725;28;20609;-65
2022/05/02 06:18:37;;;;;;;0.90;0.85;;;9.70;99.90;;;;;;4990009;28;20490;-65
2022/05/02 06:21:07;;;;;;;1.48;1.20;;;9.80;99.90;;;;;;4990685;28;20033;-65
2022/05/02 06:23:40;;;;;;;0.77;0.77;;;9.80;99.90;;;;;;4991694;28;20489;-65
2022/05/02 06:26:08;;;;;;;0.13;0.13;;;9.80;99.90;;;;;;4998567;28;20037;-65
2022/05/02 06:28:41;;;;;;;0.85;0.85;;;9.70;99.90;;;;;;5008969;28;20548;-65
2022/05/02 06:31:15;;;;;;;3.00;0.47;;;9.70;99.90;;;;;;4996726;28;20034;-66
2022/05/02 06:33:45;;;;;;;2.38;1.85;;;9.90;99.90;;;;;;4973859;28;20088;-66
2022/05/02 06:37:08;;;;;;;1.80;1.23;;;10.00;99.90;;;;;;4969703;28;20045;-67
2022/05/02 06:40:31;;;;;;;0.55;0.55;;;10.10;99.90;;;;;;4987494;28;20065;-64
2022/05/02 06:43:03;;;;;;;0.82;0.40;;;10.30;99.90;;;;;;4970490;28;20336;-64
2022/05/02 06:46:12;;;;;;;2.22;1.00;;;10.40;99.90;;;;;;4992370;28;20116;-64
2022/05/02 06:49:08;;;;;;;1.27;1.17;;;10.30;99.90;;;;;;4985716;28;20042;-64
2022/05/02 06:51:45;;;;;;;0.47;0.47;;;10.30;99.90;;;;;;4971414;28;20125;-64
2022/05/02 06:54:52;;;;;;;0.40;0.40;;;10.50;99.90;;;;;;4988604;28;20045;-64
2022/05/02 06:57:52;;;;;;;5.45;1.40;;;10.60;99.90;;;;;;4998551;28;20065;-66
2022/05/02 07:00:20;;;;;;;0.20;0.20;;;10.70;99.90;;;;;;4998770;28;20494;-64
2022/05/02 07:03:20;;;;;;;0.30;0.30;;;10.70;99.90;;;;;;4991851;28;20030;-64
2022/05/02 07:06:00;;;;;;;0.65;0.55;;;10.70;99.90;;;;;;5002353;28;20128;-65
2022/05/02 07:08:32;;;;;;;2.20;1.80;;;11.00;99.90;;;;;;4971728;28;20076;-65
2022/05/02 07:11:03;;;;;;;0.20;0.20;;;11.00;99.90;;;;;;4971443;28;20053;-65
2022/05/02 07:14:06;;;;;;;1.52;0.88;;;11.20;99.90;;;;;;4988679;28;20060;-64
2022/05/02 07:16:37;;;;;;;1.13;1.13;;;11.30;99.90;;;;;;4989093;28;20525;-64
2022/05/02 07:19:12;;;;;;;1.65;0.65;;;11.50;99.90;;;;;;4980077;28;20646;-64
2022/05/02 07:21:57;;;;;;;1.13;1.05;;;11.70;99.90;;;;;;4988354;28;20038;-64
2022/05/02 07:24:51;;;;;;;1.23;0.70;;;11.80;99.90;;;;;;4996990;28;20026;-64
2022/05/02 07:27:55;;;;;;;0.85;0.73;;;12.00;99.90;;;;;;4987425;28;20506;-64
2022/05/02 07:30:23;;;;;;;0.20;0.20;;;12.00;99.90;;;;;;4988577;28;20042;-65
2022/05/02 07:32:51;;;;;;;0.25;0.25;;;12.10;99.90;;;;;;4992573;28;20022;-65
2022/05/02 07:35:17;;;;;;;0.10;0.10;;;12.20;99.90;;;;;;4992366;28;20024;-65
2022/05/02 07:37:46;;;;;;;0.40;0.40;;;12.20;99.90;;;;;;4991159;28;20033;-65
2022/05/02 07:40:16;;;;;;;0.85;0.82;;;12.50;99.90;;;;;;4984222;28;20133;-65
2022/05/02 07:42:44;;;;;;;0.20;0.20;;;12.40;99.90;;;;;;4996014;28;20076;-65
2022/05/02 07:45:13;;;;;;;0.15;0.15;;;12.60;99.90;;;;;;5003135;28;20489;-65
2022/05/02 07:47:43;;;;;;;0.30;0.30;;;12.70;99.90;;;;;;4991234;28;20030;-65
2022/05/02 07:50:12;;;;;;;0.75;0.75;;;12.80;99.90;;;;;;4990069;28;20067;-65
2022/05/02 07:52:41;;;;;;;1.27;0.85;;;13.10;99.90;;;;;;4986805;28;20510;-65
2022/05/02 07:55:11;;;;;;;0.60;0.60;;;13.10;99.90;;;;;;4980369;28;20053;-65
2022/05/02 07:57:41;;;;;;;0.35;0.35;;;13.20;99.90;;;;;;4990425;28;20149;-65
2022/05/02 08:00:10;;;;;;;0.50;0.50;;;13.00;99.90;;;;;;5001829;28;20026;-64
2022/05/02 08:02:36;;;;;;;0.22;0.22;;;13.10;99.90;;;;;;4987460;28;20437;-65
2022/05/02 08:05:05;;;;;;;2.33;1.00;;;13.30;99.90;;;;;;4992710;28;20026;-64
2022/05/02 08:07:44;;;;;;;0.20;0.20;;;13.40;99.90;;;;;;4990498;28;20042;-64
2022/05/02 08:10:33;;;;;;;0.80;0.80;;;13.70;99.90;;;;;;4990716;28;20105;-64
2022/05/02 08:13:28;;;;;;;0.95;0.88;;;13.80;99.90;;;;;;4992615;28;20053;-64
2022/05/02 08:16:14;;;;;;;0.63;0.45;;;13.70;99.90;;;;;;4992283;28;20438;-64
2022/05/02 08:19:19;;;;;;;0.47;0.47;;;13.80;99.90;;;;;;4980848;23;20093;-65
2022/05/02 08:27:15;;;;;;;0.35;0.32;;;13.80;99.90;;;;;;4977786;28;20030;-65
2022/05/02 08:28:08;;;;;;;0.45;0.45;;;14.30;99.90;;;;;;4956590;28;20077;-66
2022/05/02 08:31:02;;;;;;;0.00;0.00;;;14.60;99.90;;;;;;4959610;28;20031;-65
2022/05/02 08:33:29;;;;;;;3.22;1.42;;;14.60;99.90;;;;;;4975868;28;20065;-66
2022/05/02 08:36:09;;;;;;;1.85;0.80;;;14.70;99.90;;;;;;4975519;28;20441;-66
2022/05/02 08:39:01;;;;;;;0.00;0.00;;;14.90;99.90;;;;;;4987386;28;20091;-66
2022/05/02 08:41:34;;;;;;;0.10;0.10;;;15.30;99.90;;;;;;4971685;28;20764;-66
2022/05/02 08:44:25;;;;;;;0.10;0.10;;;15.50;99.90;;;;;;4971942;28;20145;-66
2022/05/02 08:47:30;;;;;;;0.20;0.20;;;15.70;99.90;;;;;;4994846;28;20038;-67
2022/05/02 08:50:41;;;;;;;0.20;0.20;;;15.60;99.90;;;;;;4972548;28;20038;-66
2022/05/02 08:53:19;;;;;;;1.13;1.08;;;15.80;99.90;;;;;;4977231;28;20853;-66
2022/05/02 08:56:15;;;;;;;0.47;0.30;;;15.80;99.90;;;;;;4987739;28;20121;-66
2022/05/02 08:59:15;;;;;;;0.73;0.73;;;15.60;99.90;;;;;;4986148;28;20389;-66
2022/05/02 09:02:08;;;;;;;0.22;0.22;;;15.50;99.90;;;;;;4981786;28;20031;-66
2022/05/02 09:05:17;;;;;;;1.65;1.52;;;15.60;99.90;;;;;;4972913;28;20039;-66
2022/05/02 09:08:13;;;;;;;0.20;0.20;;;15.80;99.90;;;;;;4955543;28;20042;-66
2022/05/02 09:11:11;;;;;;;0.43;0.30;;;15.80;99.90;;;;;;4971480;28;20034;-66
2022/05/02 09:14:09;;;;;;;0.00;0.00;;;15.80;99.90;;;;;;4978459;28;20030;-66
2022/05/02 09:17:23;;;;;;;0.05;0.05;;;15.90;99.90;;;;;;4967381;28;20031;-65
2022/05/02 09:20:25;;;;;;;2.10;0.95;;;16.20;99.90;;;;;;4959132;28;20091;-66
2022/05/02 09:23:26;;;;;;;;;;;16.40;99.90;;;;;;4971196;28;20041;-66
2022/05/02 09:26:07;;;;;;;0.65;0.65;;;16.50;99.90;;;;;;4918492;28;20446;-65
2022/05/02 09:28:53;;;;;;;0.52;0.52;;;16.70;99.90;;;;;;4972245;28;20478;-71
2022/05/02 09:31:59;;;;;;;0.47;0.47;;;16.80;99.90;;;;;;4969070;28;20058;-67
2022/05/02 09:34:35;;;;;;;0.50;0.50;;;16.90;99.90;;;;;;4974623;28;20027;-67
2022/05/02 09:37:03;;;;;;;0.25;0.25;;;16.90;99.90;;;;;;4973404;28;20034;-68
2022/05/02 09:40:04;;;;;;;0.20;0.20;;;17.00;99.90;;;;;;4974986;28;20266;-68
2022/05/02 09:43:06;;;;;;;0.25;0.25;;;17.40;99.90;;;;;;4990640;28;20030;-68
2022/05/02 09:51:53;;;;;;;0.90;0.82;;;17.90;99.90;;;;;;4976849;28;20046;-67
2022/05/02 09:57:35;;;;;;;0.38;0.38;;;18.10;99.80;;;;;;4986839;28;20042;-72
2022/05/02 10:02:54;;;;;;;0.63;0.30;;;18.40;98.90;;;;;;4951071;29;20019;-68
2022/05/02 10:05:21;;;;;;;1.45;0.95;;;18.40;99.40;;;;;;4950672;29;20027;-71
2022/05/02 10:08:09;;;;;;;0.17;0.15;;;18.30;97.40;;;;;;4952095;29;20045;-68
2022/05/02 10:10:50;;;;;;;0.98;0.77;;;18.20;98.20;;;;;;4951293;29;20110;-65
2022/05/02 10:14:00;;;;;;;1.00;0.60;;;18.60;97.50;;;;;;4969148;28;20030;-65
2022/05/02 10:16:47;;;;;;;0.80;0.47;;;18.60;96.90;;;;;;4983913;28;20042;-68
2022/05/02 10:19:52;;;;;;;0.32;0.32;;;18.70;95.60;;;;;;4976819;28;20410;-66
2022/05/02 10:22:32;;;;;;;0.00;0.00;;;18.60;97.50;;;;;;4978367;28;20121;-66
2022/05/02 10:25:17;;;;;;;1.90;1.00;;;19.00;95.70;;;;;;4986164;28;20041;-63
2022/05/02 10:28:43;;;;;;;0.60;0.60;;;19.30;94.10;;;;;;4972751;28;20035;-67
2022/05/02 10:31:33;;;;;;;0.10;0.10;;;19.10;94.30;;;;;;4971326;28;20026;-68
2022/05/02 10:34:02;;;;;;;0.52;0.32;;;19.40;93.90;;;;;;4955066;28;20051;-68
2022/05/02 10:36:38;;;;;;;1.23;0.88;;;19.50;92.90;;;;;;4971060;28;20134;-68
2022/05/02 10:39:50;;;;;;;0.75;0.75;;;19.50;92.90;;;;;;4954152;28;20088;-68
2022/05/02 10:42:25;;;;;;;0.32;0.32;;;19.40;91.90;;;;;;4971096;28;20030;-68
2022/05/02 10:45:08;;;;;;;4.43;0.38;;;19.50;92.60;;;;;;4953880;28;20031;-68
2022/05/02 10:47:54;;;;;;;0.65;0.57;;;19.90;91.90;;;;;;4969831;28;20126;-67
2022/05/02 10:50:36;;;;;;;0.20;0.20;;;19.80;91.60;;;;;;4970929;28;20066;-68
2022/05/02 10:53:25;;;;;;;0.98;0.73;;;20.10;90.60;;;;;;4970887;28;20031;-67
2022/05/02 10:56:21;;;;;;;0.38;0.38;;;20.60;87.00;;;;;;4953755;28;20077;-68
2022/05/02 10:58:48;;;;;;;0.30;0.30;;;20.90;86.00;;;;;;4970986;28;20106;-68
2022/05/02 11:01:38;;;;;;;0.52;0.22;;;21.00;87.80;;;;;;4982600;28;20023;-68
2022/05/02 11:04:42;;;;;;;0.30;0.30;;;21.20;87.40;;;;;;4989551;28;20109;-67
2022/05/02 11:07:34;;;;;;;0.50;0.47;;;21.00;83.40;;;;;;4993323;28;20041;-66
2022/05/02 11:10:10;;;;;;;1.40;1.23;;;20.50;87.60;;;;;;4992753;28;20202;-67
2022/05/02 11:12:42;;;;;;;0.17;0.13;;;20.50;88.40;;;;;;4976738;28;20035;-68
2022/05/02 11:15:10;;;;;;;0.57;0.38;;;20.80;88.30;;;;;;4994171;28;20512;-67
2022/05/02 11:17:56;;;;;;;0.30;0.30;;;21.20;87.60;;;;;;4994122;28;20129;-67
2022/05/02 11:20:49;;;;;;;0.40;0.40;;;21.20;87.70;;;;;;4993749;28;20803;-67
2022/05/02 11:23:52;;;;;;;0.57;0.35;;;21.40;90.20;;;;;;4993988;28;20045;-68
2022/05/02 11:26:49;;;;;;;0.40;0.35;;;21.10;85.60;;;;;;4976347;28;20054;-69
2022/05/02 11:29:31;;;;;;;0.98;0.82;;;20.90;89.50;;;;;;4992744;28;20069;-68
2022/05/02 11:32:05;;;;;;;0.00;0.00;;;21.20;85.70;;;;;;4992385;28;20113;-68
2022/05/02 11:35:08;;;;;;;0.00;0.00;;;21.30;86.80;;;;;;4992728;28;20109;-68
2022/05/02 11:38:11;;;;;;;1.17;0.65;;;20.60;88.20;;;;;;4976150;28;20552;-68
2022/05/02 11:40:50;;;;;;;0.43;0.43;;;20.90;90.40;;;;;;4989439;28;20039;-68
2022/05/02 11:43:22;;;;;;;0.08;0.08;;;20.70;88.30;;;;;;4993554;28;20042;-68
2022/05/02 11:46:05;;;;;;;0.32;0.32;;;21.00;90.10;;;;;;4993758;28;20033;-68
2022/05/02 11:49:19;;;;;;;0.60;0.60;;;21.30;87.40;;;;;;4992153;28;20038;-68
2022/05/02 11:51:50;;;;;;;0.38;0.38;;;21.40;83.60;;;;;;4973136;28;20034;-67
2022/05/02 11:54:27;;;;;;;0.10;0.05;;;21.00;88.10;;;;;;4973814;28;20035;-68
2022/05/02 11:57:20;;;;;;;1.27;0.52;;;20.80;86.80;;;;;;4974050;28;20035;-68
2022/05/02 11:59:59;;;;;;;0.20;0.20;;;21.40;86.00;;;;;;4973493;28;20025;-68
2022/05/02 12:02:39;;;;;;;0.38;0.38;;;21.50;86.40;;;;;;4974067;28;20093;-68
2022/05/02 12:05:21;;;;;;;0.30;0.30;;;21.10;85.80;;;;;;4973723;28;20445;-68
2022/05/02 12:07:55;;;;;;;0.10;0.10;;;20.60;86.90;;;;;;4973688;28;20118;-68
2022/05/02 12:10:45;;;;;;;1.48;1.13;;;21.00;87.80;;;;;;4956794;28;20477;-68
2022/05/02 12:13:20;;;;;;;0.30;0.22;;;21.70;85.60;;;;;;4973713;28;20034;-68
2022/05/02 12:16:08;;;;;;;0.30;0.30;;;21.10;88.60;;;;;;4973298;28;20034;-68
2022/05/02 12:18:55;;;;;;;1.10;0.50;;;21.20;88.50;;;;;;4971550;28;20034;-68
2022/05/02 12:21:38;;;;;;;1.20;0.60;;;21.30;87.80;;;;;;4973616;28;20027;-67
2022/05/02 12:24:06;;;;;;;0.22;0.22;;;20.80;90.00;;;;;;4988254;28;20125;-68
2022/05/02 12:26:42;;;;;;;0.98;0.57;;;21.30;85.10;;;;;;4973468;28;20070;-68
2022/05/02 12:29:19;;;;;;;0.03;0.03;;;20.60;88.50;;;;;;4987079;28;20057;-68
2022/05/02 12:31:59;;;;;;;0.28;0.28;;;21.00;86.10;;;;;;4973595;28;20023;-68
2022/05/02 12:34:39;;;;;;;1.80;1.10;;;20.90;88.30;;;;;;4973099;28;20541;-68
2022/05/02 12:37:23;;;;;;;0.13;0.13;;;21.40;86.30;;;;;;4972999;28;20038;-68
2022/05/02 12:40:06;;;;;;;0.00;0.00;;;20.90;90.70;;;;;;4972863;28;20345;-68
2022/05/02 12:42:44;;;;;;;0.40;0.20;;;21.10;87.40;;;;;;4973250;28;20031;-68
2022/05/02 12:45:15;;;;;;;0.28;0.28;;;21.20;85.40;;;;;;4973198;28;20023;-68
2022/05/02 12:47:45;;;;;;;0.50;0.40;;;21.00;87.50;;;;;;4972935;28;20039;-68
2022/05/02 12:50:25;;;;;;;0.43;0.35;;;20.50;86.90;;;;;;4972579;28;20049;-68
2022/05/02 12:53:01;;;;;;;0.15;0.15;;;20.60;88.00;;;;;;4971772;28;20457;-67
2022/05/02 12:55:34;;;;;;;0.10;0.10;;;20.70;87.70;;;;;;4972727;28;20035;-67
2022/05/02 13:00:58;;;;;;;0.30;0.30;;;20.50;88.00;;;;;;4972399;28;20027;-67
2022/05/02 13:03:28;;;;;;;0.57;0.57;;;20.10;88.50;;;;;;4956632;28;20026;-68
2022/05/02 13:06:07;;;;;;;0.23;0.23;;;19.90;89.60;;;;;;4955471;28;20139;-68
2022/05/02 13:08:36;;;;;;;0.45;0.45;;;20.10;88.30;;;;;;4956064;28;20031;-67
2022/05/02 13:11:07;;;;;;;0.25;0.15;;;20.20;88.30;;;;;;4972753;28;20121;-67
2022/05/02 13:13:54;;;;;;;2.00;0.85;;;20.30;87.90;;;;;;4972347;28;20031;-67
2022/05/02 13:16:44;;;;;;;0.40;0.40;;;20.50;88.80;;;;;;4972406;28;20035;-67
2022/05/02 13:19:11;;;;;;;0.52;0.52;;;20.20;88.60;;;;;;4956032;28;20034;-67
2022/05/02 13:21:37;;;;;;;0.63;0.63;;;20.50;88.80;;;;;;4972311;28;20027;-68
2022/05/02 13:24:09;;;;;;;0.57;0.45;;;21.20;87.60;;;;;;4954906;28;20030;-67
2022/05/02 13:26:58;;;;;;;0.35;0.35;;;21.50;87.10;;;;;;4972530;28;20038;-67
2022/05/02 13:29:46;;;;;;;1.20;1.10;;;21.50;86.70;;;;;;4971667;28;20371;-67
2022/05/02 13:32:22;;;;;;;0.35;0.35;;;21.50;88.80;;;;;;4972659;28;20661;-67
2022/05/02 13:35:11;;;;;;;0.80;0.75;;;22.70;84.00;;;;;;4955397;28;20455;-67
2022/05/02 13:37:55;;;;;;;0.35;0.35;;;23.50;79.10;;;;;;4971923;28;20027;-67
2022/05/02 13:40:31;;;;;;;1.05;0.90;;;22.20;78.80;;;;;;4954278;28;20398;-67
2022/05/02 13:43:15;;;;;;;1.75;0.77;;;21.60;82.20;;;;;;4972230;28;20117;-67
2022/05/02 13:45:59;;;;;;;0.45;0.35;;;22.10;81.90;;;;;;4955007;28;20116;-68
2022/05/02 13:49:03;;;;;;;0.50;0.50;;;22.00;81.50;;;;;;4955103;28;20113;-67
2022/05/02 13:51:38;;;;;;;1.08;0.95;;;23.50;79.10;;;;;;4957672;28;20089;-68
2022/05/02 13:54:23;;;;;;;1.20;0.77;;;23.20;79.30;;;;;;4970485;28;20031;-65
2022/05/02 13:57:22;;;;;;;0.30;0.30;;;23.20;78.50;;;;;;4954062;28;20509;-68
2022/05/02 14:03:41;;;;;;;1.20;0.70;;;24.60;76.00;;;;;;4971805;28;20038;-68
2022/05/02 14:06:12;;;;;;;1.10;0.63;;;25.40;74.50;;;;;;4971618;28;20023;-69
2022/05/02 14:08:39;;;;;;;0.20;0.17;;;26.20;70.30;;;;;;4954054;28;20060;-69
2022/05/02 14:11:05;;;;;;;0.70;0.60;;;24.60;73.00;;;;;;4971650;28;20033;-68
2022/05/02 14:13:31;;;;;;;1.17;1.05;;;24.20;74.30;;;;;;4954358;28;20475;-68
2022/05/02 14:16:09;;;;;;;1.23;0.63;;;24.80;71.70;;;;;;4979029;28;20037;-69